sensor_id;sensor_type;location;lat;lon;timestamp;temperature;humidity
20428;DHT22;10373;49.768;18.302;2023-06-10T00:01:27;17.10;99.90
20428;DHT22;10373;49.768;18.302;2023-06-10T00:03:54;17.10;99.90
20428;DHT22;10373;49.768;18.302;2023-06-10T00:06:19;17.00;99.90
20428;DHT22;10373;49.768;18.302;2023-06-10T00:08:47;17.00;99.90
20428;DHT22;10373;49.768;18.302;2023-06-10T00:11:13;17.00;99.90
20428;DHT22;10373;49.768;18.302;2023-06-10T00:13:39;16.90;99.90
20428;DHT22;10373;49.768;18.302;2023-06-10T00:16:05;16.90;99.90
20428;DHT22;10373;49.768;18.302;2023-06-10T00:18:31;16.90;99.90
20428;DHT22;10373;49.768;18.302;2023-06-10T00:20:57;16.90;99.90
20428;DHT22;10373;49.768;18.302;2023-06-10T00:23:29;16.80;99.90
20428;DHT22;10373;49.768;18.302;2023-06-10T00:25:58;16.80;99.90
20428;DHT22;10373;49.768;18.302;2023-06-10T00:28:24;16.70;99.90
20428;DHT22;10373;49.768;18.302;2023-06-10T00:30:50;16.70;99.90
20428;DHT22;10373;49.768;18.302;2023-06-10T00:33:15;16.70;99.90
20428;DHT22;10373;49.768;18.302;2023-06-10T00:35:41;16.70;99.90
20428;DHT22;10373;49.768;18.302;2023-06-10T00:38:06;16.60;99.90
20428;DHT22;10373;49.768;18.302;2023-06-10T00:40:38;16.70;99.90
20428;DHT22;10373;49.768;18.302;2023-06-10T00:43:04;16.70;99.90
20428;DHT22;10373;49.768;18.302;2023-06-10T00:45:30;16.70;99.90
20428;DHT22;10373;49.768;18.302;2023-06-10T00:47:55;16.70;99.90
20428;DHT22;10373;49.768;18.302;2023-06-10T00:50:21;16.70;99.90
20428;DHT22;10373;49.768;18.302;2023-06-10T00:52:47;16.80;99.90
20428;DHT22;10373;49.768;18.302;2023-06-10T00:55:16;16.80;99.90
20428;DHT22;10373;49.768;18.302;2023-06-10T00:57:42;16.80;99.90
20428;DHT22;10373;49.768;18.302;2023-06-10T01:00:10;16.80;99.90
20428;DHT22;10373;49.768;18.302;2023-06-10T01:02:36;16.70;99.90
20428;DHT22;10373;49.768;18.302;2023-06-10T01:05:02;16.70;99.90
20428;DHT22;10373;49.768;18.302;2023-06-10T01:07:38;16.70;99.90
20428;DHT22;10373;49.768;18.302;2023-06-10T01:10:15;16.60;99.90
20428;DHT22;10373;49.768;18.302;2023-06-10T01:15:16;16.60;99.90
20428;DHT22;10373;49.768;18.302;2023-06-10T01:18:00;16.60;99.90
20428;DHT22;10373;49.768;18.302;2023-06-10T01:20:28;16.60;99.90
20428;DHT22;10373;49.768;18.302;2023-06-10T01:22:55;16.60;99.90
20428;DHT22;10373;49.768;18.302;2023-06-10T01:25:22;16.50;99.90
20428;DHT22;10373;49.768;18.302;2023-06-10T01:28:10;16.40;99.90
20428;DHT22;10373;49.768;18.302;2023-06-10T01:30:50;16.40;99.90
20428;DHT22;10373;49.768;18.302;2023-06-10T01:33:31;16.50;99.90
20428;DHT22;10373;49.768;18.302;2023-06-10T01:35:59;16.50;99.90
20428;DHT22;10373;49.768;18.302;2023-06-10T01:38:26;16.50;99.90
20428;DHT22;10373;49.768;18.302;2023-06-10T01:40:55;16.50;99.90
20428;DHT22;10373;49.768;18.302;2023-06-10T01:43:22;16.60;99.90
20428;DHT22;10373;49.768;18.302;2023-06-10T01:45:47;16.60;99.90
20428;DHT22;10373;49.768;18.302;2023-06-10T01:48:13;16.70;99.90
20428;DHT22;10373;49.768;18.302;2023-06-10T01:50:39;16.60;99.90
20428;DHT22;10373;49.768;18.302;2023-06-10T01:53:05;16.50;99.90
20428;DHT22;10373;49.768;18.302;2023-06-10T01:55:33;16.40;99.90
20428;DHT22;10373;49.768;18.302;2023-06-10T01:57:59;16.40;99.90
20428;DHT22;10373;49.768;18.302;2023-06-10T02:00:24;16.40;99.90
20428;DHT22;10373;49.768;18.302;2023-06-10T02:02:50;16.40;99.90
20428;DHT22;10373;49.768;18.302;2023-06-10T02:05:16;16.30;99.90
20428;DHT22;10373;49.768;18.302;2023-06-10T02:07:41;16.30;99.90
20428;DHT22;10373;49.768;18.302;2023-06-10T02:10:08;16.30;99.90
20428;DHT22;10373;49.768;18.302;2023-06-10T02:12:34;16.40;99.90
20428;DHT22;10373;49.768;18.302;2023-06-10T02:14:59;16.40;99.90
20428;DHT22;10373;49.768;18.302;2023-06-10T02:17:25;16.40;99.90
20428;DHT22;10373;49.768;18.302;2023-06-10T02:19:51;16.40;99.90
20428;DHT22;10373;49.768;18.302;2023-06-10T02:22:22;16.40;99.90
20428;DHT22;10373;49.768;18.302;2023-06-10T02:24:48;16.40;99.90
20428;DHT22;10373;49.768;18.302;2023-06-10T02:27:15;16.30;99.90
20428;DHT22;10373;49.768;18.302;2023-06-10T02:29:41;16.30;99.90
20428;DHT22;10373;49.768;18.302;2023-06-10T02:32:07;16.40;99.90
20428;DHT22;10373;49.768;18.302;2023-06-10T02:34:33;16.40;99.90
20428;DHT22;10373;49.768;18.302;2023-06-10T02:37:00;16.40;99.90
20428;DHT22;10373;49.768;18.302;2023-06-10T02:39:27;16.40;99.90
20428;DHT22;10373;49.768;18.302;2023-06-10T02:41:53;16.30;99.90
20428;DHT22;10373;49.768;18.302;2023-06-10T02:44:19;16.30;99.90
20428;DHT22;10373;49.768;18.302;2023-06-10T02:46:45;16.30;99.90
20428;DHT22;10373;49.768;18.302;2023-06-10T02:49:11;16.30;99.90
20428;DHT22;10373;49.768;18.302;2023-06-10T02:51:37;16.40;99.90
20428;DHT22;10373;49.768;18.302;2023-06-10T02:54:03;16.40;99.90
20428;DHT22;10373;49.768;18.302;2023-06-10T02:56:29;16.40;99.90
20428;DHT22;10373;49.768;18.302;2023-06-10T02:58:54;16.40;99.90
20428;DHT22;10373;49.768;18.302;2023-06-10T03:01:21;16.40;99.90
20428;DHT22;10373;49.768;18.302;2023-06-10T03:03:46;16.40;99.90
20428;DHT22;10373;49.768;18.302;2023-06-10T03:06:13;16.40;99.90
20428;DHT22;10373;49.768;18.302;2023-06-10T03:08:39;16.40;99.90
20428;DHT22;10373;49.768;18.302;2023-06-10T03:11:05;16.40;99.90
20428;DHT22;10373;49.768;18.302;2023-06-10T03:13:32;16.40;99.90
20428;DHT22;10373;49.768;18.302;2023-06-10T03:15:58;16.30;99.90
20428;DHT22;10373;49.768;18.302;2023-06-10T03:18:27;16.30;99.90
20428;DHT22;10373;49.768;18.302;2023-06-10T03:20:56;16.30;99.90
20428;DHT22;10373;49.768;18.302;2023-06-10T03:23:23;16.40;99.90
20428;DHT22;10373;49.768;18.302;2023-06-10T03:25:49;16.40;99.90
20428;DHT22;10373;49.768;18.302;2023-06-10T03:28:15;16.50;99.90
20428;DHT22;10373;49.768;18.302;2023-06-10T03:30:40;16.50;99.90
20428;DHT22;10373;49.768;18.302;2023-06-10T03:33:06;16.50;99.90
20428;DHT22;10373;49.768;18.302;2023-06-10T03:35:32;16.40;99.90
20428;DHT22;10373;49.768;18.302;2023-06-10T03:37:58;16.50;99.90
20428;DHT22;10373;49.768;18.302;2023-06-10T03:40:24;16.50;99.90
20428;DHT22;10373;49.768;18.302;2023-06-10T03:42:50;16.40;99.90
20428;DHT22;10373;49.768;18.302;2023-06-10T03:45:16;16.40;99.90
20428;DHT22;10373;49.768;18.302;2023-06-10T03:47:41;16.40;99.90
20428;DHT22;10373;49.768;18.302;2023-06-10T03:50:09;16.40;99.90
20428;DHT22;10373;49.768;18.302;2023-06-10T03:52:35;16.50;99.90
20428;DHT22;10373;49.768;18.302;2023-06-10T03:55:01;16.50;99.90
20428;DHT22;10373;49.768;18.302;2023-06-10T03:57:27;16.50;99.90
20428;DHT22;10373;49.768;18.302;2023-06-10T03:59:53;16.40;99.90
20428;DHT22;10373;49.768;18.302;2023-06-10T04:02:19;16.50;99.90
20428;DHT22;10373;49.768;18.302;2023-06-10T04:04:44;16.50;99.90
20428;DHT22;10373;49.768;18.302;2023-06-10T04:07:10;16.50;99.90
20428;DHT22;10373;49.768;18.302;2023-06-10T04:09:36;16.60;99.90
20428;DHT22;10373;49.768;18.302;2023-06-10T04:12:03;16.50;99.90
20428;DHT22;10373;49.768;18.302;2023-06-10T04:14:31;16.50;99.90
20428;DHT22;10373;49.768;18.302;2023-06-10T04:16:57;16.50;99.90
20428;DHT22;10373;49.768;18.302;2023-06-10T04:19:22;16.50;99.90
20428;DHT22;10373;49.768;18.302;2023-06-10T04:21:48;16.50;99.90
20428;DHT22;10373;49.768;18.302;2023-06-10T04:24:14;16.50;99.90
20428;DHT22;10373;49.768;18.302;2023-06-10T04:26:39;16.60;99.90
20428;DHT22;10373;49.768;18.302;2023-06-10T04:29:05;16.60;99.90
20428;DHT22;10373;49.768;18.302;2023-06-10T04:31:31;16.70;99.90
20428;DHT22;10373;49.768;18.302;2023-06-10T04:33:57;16.70;99.90
20428;DHT22;10373;49.768;18.302;2023-06-10T04:36:23;16.80;99.90
20428;DHT22;10373;49.768;18.302;2023-06-10T04:38:49;16.80;99.90
20428;DHT22;10373;49.768;18.302;2023-06-10T04:41:14;16.80;99.90
20428;DHT22;10373;49.768;18.302;2023-06-10T04:43:40;16.70;99.90
20428;DHT22;10373;49.768;18.302;2023-06-10T04:46:07;16.80;99.90
20428;DHT22;10373;49.768;18.302;2023-06-10T04:48:32;16.80;99.90
20428;DHT22;10373;49.768;18.302;2023-06-10T04:51:00;16.80;99.90
20428;DHT22;10373;49.768;18.302;2023-06-10T04:53:26;16.90;99.90
20428;DHT22;10373;49.768;18.302;2023-06-10T04:55:54;16.90;99.90
20428;DHT22;10373;49.768;18.302;2023-06-10T04:58:19;17.00;99.90
20428;DHT22;10373;49.768;18.302;2023-06-10T05:00:45;17.00;99.90
20428;DHT22;10373;49.768;18.302;2023-06-10T05:03:11;17.10;99.90
20428;DHT22;10373;49.768;18.302;2023-06-10T05:05:36;17.00;99.90
20428;DHT22;10373;49.768;18.302;2023-06-10T05:08:02;17.00;99.90
20428;DHT22;10373;49.768;18.302;2023-06-10T05:10:28;17.00;99.90
20428;DHT22;10373;49.768;18.302;2023-06-10T05:12:57;17.00;99.90
20428;DHT22;10373;49.768;18.302;2023-06-10T05:15:23;16.90;99.90
20428;DHT22;10373;49.768;18.302;2023-06-10T05:17:49;16.90;99.90
20428;DHT22;10373;49.768;18.302;2023-06-10T05:20:14;16.90;99.90
20428;DHT22;10373;49.768;18.302;2023-06-10T05:22:40;16.90;99.90
20428;DHT22;10373;49.768;18.302;2023-06-10T05:25:07;16.90;99.90
20428;DHT22;10373;49.768;18.302;2023-06-10T05:27:33;16.90;99.90
20428;DHT22;10373;49.768;18.302;2023-06-10T05:29:59;16.90;99.90
20428;DHT22;10373;49.768;18.302;2023-06-10T05:32:25;16.90;99.90
20428;DHT22;10373;49.768;18.302;2023-06-10T05:34:50;17.00;99.90
20428;DHT22;10373;49.768;18.302;2023-06-10T05:37:16;17.00;99.90
20428;DHT22;10373;49.768;18.302;2023-06-10T05:39:41;17.00;99.90
20428;DHT22;10373;49.768;18.302;2023-06-10T05:42:07;17.00;99.90
20428;DHT22;10373;49.768;18.302;2023-06-10T05:44:34;16.90;99.90
20428;DHT22;10373;49.768;18.302;2023-06-10T05:47:00;17.00;99.90
20428;DHT22;10373;49.768;18.302;2023-06-10T05:49:26;17.00;99.90
20428;DHT22;10373;49.768;18.302;2023-06-10T05:51:52;17.00;99.90
20428;DHT22;10373;49.768;18.302;2023-06-10T05:54:18;17.10;99.90
20428;DHT22;10373;49.768;18.302;2023-06-10T05:56:44;17.10;99.90
20428;DHT22;10373;49.768;18.302;2023-06-10T05:59:10;17.20;99.90
20428;DHT22;10373;49.768;18.302;2023-06-10T06:01:36;17.20;99.90
20428;DHT22;10373;49.768;18.302;2023-06-10T06:04:01;17.30;99.90
20428;DHT22;10373;49.768;18.302;2023-06-10T06:06:27;17.40;99.90
20428;DHT22;10373;49.768;18.302;2023-06-10T06:08:53;17.50;99.90
20428;DHT22;10373;49.768;18.302;2023-06-10T06:11:18;17.60;99.90
20428;DHT22;10373;49.768;18.302;2023-06-10T06:13:44;17.80;99.90
20428;DHT22;10373;49.768;18.302;2023-06-10T06:16:10;17.90;99.90
20428;DHT22;10373;49.768;18.302;2023-06-10T06:18:35;18.00;99.90
20428;DHT22;10373;49.768;18.302;2023-06-10T06:21:01;18.00;99.90
20428;DHT22;10373;49.768;18.302;2023-06-10T06:23:27;18.10;99.90
20428;DHT22;10373;49.768;18.302;2023-06-10T06:25:52;18.10;99.90
20428;DHT22;10373;49.768;18.302;2023-06-10T06:28:18;18.10;99.90
20428;DHT22;10373;49.768;18.302;2023-06-10T06:30:46;18.10;99.90
20428;DHT22;10373;49.768;18.302;2023-06-10T06:33:12;18.20;99.90
20428;DHT22;10373;49.768;18.302;2023-06-10T06:35:37;18.20;99.90
20428;DHT22;10373;49.768;18.302;2023-06-10T06:38:03;18.30;99.90
20428;DHT22;10373;49.768;18.302;2023-06-10T06:40:30;18.30;99.90
20428;DHT22;10373;49.768;18.302;2023-06-10T06:42:55;18.40;99.90
20428;DHT22;10373;49.768;18.302;2023-06-10T06:45:21;18.50;99.90
20428;DHT22;10373;49.768;18.302;2023-06-10T06:47:47;18.50;99.90
20428;DHT22;10373;49.768;18.302;2023-06-10T06:50:13;18.50;99.90
20428;DHT22;10373;49.768;18.302;2023-06-10T06:52:38;18.50;99.90
20428;DHT22;10373;49.768;18.302;2023-06-10T06:55:04;18.50;99.90
20428;DHT22;10373;49.768;18.302;2023-06-10T06:57:30;18.60;99.90
20428;DHT22;10373;49.768;18.302;2023-06-10T06:59:56;18.70;99.90
20428;DHT22;10373;49.768;18.302;2023-06-10T07:02:21;18.70;99.90
20428;DHT22;10373;49.768;18.302;2023-06-10T07:04:47;18.70;99.90
20428;DHT22;10373;49.768;18.302;2023-06-10T07:07:15;18.70;99.90
20428;DHT22;10373;49.768;18.302;2023-06-10T07:09:40;18.80;99.90
20428;DHT22;10373;49.768;18.302;2023-06-10T07:12:07;18.70;99.90
20428;DHT22;10373;49.768;18.302;2023-06-10T07:14:32;18.80;99.90
20428;DHT22;10373;49.768;18.302;2023-06-10T07:16:58;18.90;99.90
20428;DHT22;10373;49.768;18.302;2023-06-10T07:19:24;19.00;99.90
20428;DHT22;10373;49.768;18.302;2023-06-10T07:21:49;19.20;99.90
20428;DHT22;10373;49.768;18.302;2023-06-10T07:24:15;19.40;99.90
20428;DHT22;10373;49.768;18.302;2023-06-10T07:26:41;19.40;99.90
20428;DHT22;10373;49.768;18.302;2023-06-10T07:29:06;19.60;99.90
20428;DHT22;10373;49.768;18.302;2023-06-10T07:31:32;19.70;99.90
20428;DHT22;10373;49.768;18.302;2023-06-10T07:33:58;19.60;99.90
20428;DHT22;10373;49.768;18.302;2023-06-10T07:36:23;19.50;99.90
20428;DHT22;10373;49.768;18.302;2023-06-10T07:38:49;19.40;99.90
20428;DHT22;10373;49.768;18.302;2023-06-10T07:41:15;19.40;99.90
20428;DHT22;10373;49.768;18.302;2023-06-10T07:43:43;19.40;99.90
20428;DHT22;10373;49.768;18.302;2023-06-10T07:46:09;19.50;99.90
20428;DHT22;10373;49.768;18.302;2023-06-10T07:48:34;19.40;99.90
20428;DHT22;10373;49.768;18.302;2023-06-10T07:51:00;19.30;99.90
20428;DHT22;10373;49.768;18.302;2023-06-10T07:53:26;19.20;99.90
20428;DHT22;10373;49.768;18.302;2023-06-10T07:55:51;19.10;99.90
20428;DHT22;10373;49.768;18.302;2023-06-10T07:58:17;19.20;99.90
20428;DHT22;10373;49.768;18.302;2023-06-10T08:00:43;19.20;99.90
20428;DHT22;10373;49.768;18.302;2023-06-10T08:03:08;19.10;99.90
20428;DHT22;10373;49.768;18.302;2023-06-10T08:05:34;19.20;99.90
20428;DHT22;10373;49.768;18.302;2023-06-10T08:08:02;19.20;99.90
20428;DHT22;10373;49.768;18.302;2023-06-10T08:10:28;19.20;99.90
20428;DHT22;10373;49.768;18.302;2023-06-10T08:12:54;19.30;99.90
20428;DHT22;10373;49.768;18.302;2023-06-10T08:15:19;19.30;99.90
20428;DHT22;10373;49.768;18.302;2023-06-10T08:17:45;19.40;99.90
20428;DHT22;10373;49.768;18.302;2023-06-10T08:20:11;19.40;99.90
20428;DHT22;10373;49.768;18.302;2023-06-10T08:22:36;19.30;99.90
20428;DHT22;10373;49.768;18.302;2023-06-10T08:25:03;19.30;99.90
20428;DHT22;10373;49.768;18.302;2023-06-10T08:27:29;19.40;99.90
20428;DHT22;10373;49.768;18.302;2023-06-10T08:29:55;19.60;99.90
20428;DHT22;10373;49.768;18.302;2023-06-10T08:32:20;19.80;99.90
20428;DHT22;10373;49.768;18.302;2023-06-10T08:34:46;20.00;99.90
20428;DHT22;10373;49.768;18.302;2023-06-10T08:37:11;20.00;99.90
20428;DHT22;10373;49.768;18.302;2023-06-10T08:39:37;20.40;99.90
20428;DHT22;10373;49.768;18.302;2023-06-10T08:44:29;20.80;99.90
20428;DHT22;10373;49.768;18.302;2023-06-10T08:47:00;21.20;99.90
20428;DHT22;10373;49.768;18.302;2023-06-10T08:49:28;21.40;99.90
20428;DHT22;10373;49.768;18.302;2023-06-10T08:51:58;21.30;99.90
20428;DHT22;10373;49.768;18.302;2023-06-10T08:54:27;21.10;99.90
20428;DHT22;10373;49.768;18.302;2023-06-10T08:56:55;21.10;99.90
20428;DHT22;10373;49.768;18.302;2023-06-10T08:59:23;20.90;99.90
20428;DHT22;10373;49.768;18.302;2023-06-10T09:01:50;21.20;99.90
20428;DHT22;10373;49.768;18.302;2023-06-10T09:04:16;21.70;99.90
20428;DHT22;10373;49.768;18.302;2023-06-10T09:06:43;21.80;99.20
20428;DHT22;10373;49.768;18.302;2023-06-10T09:09:10;21.90;98.50
20428;DHT22;10373;49.768;18.302;2023-06-10T09:11:38;21.90;98.50
20428;DHT22;10373;49.768;18.302;2023-06-10T09:14:03;22.30;98.40
20428;DHT22;10373;49.768;18.302;2023-06-10T09:16:29;22.60;97.20
20428;DHT22;10373;49.768;18.302;2023-06-10T09:18:55;23.00;96.60
20428;DHT22;10373;49.768;18.302;2023-06-10T09:21:25;22.80;93.00
20428;DHT22;10373;49.768;18.302;2023-06-10T09:23:51;22.50;93.20
20428;DHT22;10373;49.768;18.302;2023-06-10T09:26:18;22.30;93.60
20428;DHT22;10373;49.768;18.302;2023-06-10T09:28:44;22.20;93.30
20428;DHT22;10373;49.768;18.302;2023-06-10T09:31:13;22.10;92.90
20428;DHT22;10373;49.768;18.302;2023-06-10T09:33:39;22.30;93.90
20428;DHT22;10373;49.768;18.302;2023-06-10T09:36:05;22.50;94.00
20428;DHT22;10373;49.768;18.302;2023-06-10T09:38:32;22.80;93.50
20428;DHT22;10373;49.768;18.302;2023-06-10T09:40:59;22.80;92.70
20428;DHT22;10373;49.768;18.302;2023-06-10T09:43:44;22.50;93.20
20428;DHT22;10373;49.768;18.302;2023-06-10T09:46:18;22.10;93.70
20428;DHT22;10373;49.768;18.302;2023-06-10T09:48:45;22.30;95.10
20428;DHT22;10373;49.768;18.302;2023-06-10T09:51:12;22.50;94.60
20428;DHT22;10373;49.768;18.302;2023-06-10T09:53:39;22.30;93.80
20428;DHT22;10373;49.768;18.302;2023-06-10T09:56:05;22.20;93.60
20428;DHT22;10373;49.768;18.302;2023-06-10T09:58:38;22.10;95.20
20428;DHT22;10373;49.768;18.302;2023-06-10T10:01:06;22.20;95.40
20428;DHT22;10373;49.768;18.302;2023-06-10T10:03:32;22.20;94.70
20428;DHT22;10373;49.768;18.302;2023-06-10T10:05:59;22.30;94.50
20428;DHT22;10373;49.768;18.302;2023-06-10T10:08:26;22.50;93.20
20428;DHT22;10373;49.768;18.302;2023-06-10T10:10:51;22.70;91.90
20428;DHT22;10373;49.768;18.302;2023-06-10T10:13:18;22.90;91.10
20428;DHT22;10373;49.768;18.302;2023-06-10T10:15:45;23.00;93.40
20428;DHT22;10373;49.768;18.302;2023-06-10T10:18:14;23.20;93.50
20428;DHT22;10373;49.768;18.302;2023-06-10T10:20:49;23.60;92.30
20428;DHT22;10373;49.768;18.302;2023-06-10T10:23:21;23.80;91.50
20428;DHT22;10373;49.768;18.302;2023-06-10T10:25:51;24.00;90.40
20428;DHT22;10373;49.768;18.302;2023-06-10T10:28:20;23.90;88.40
20428;DHT22;10373;49.768;18.302;2023-06-10T10:30:49;23.40;87.90
20428;DHT22;10373;49.768;18.302;2023-06-10T10:33:16;22.90;89.70
20428;DHT22;10373;49.768;18.302;2023-06-10T10:35:44;22.70;90.10
20428;DHT22;10373;49.768;18.302;2023-06-10T10:38:11;22.70;90.60
20428;DHT22;10373;49.768;18.302;2023-06-10T10:40:38;23.30;90.20
20428;DHT22;10373;49.768;18.302;2023-06-10T10:43:05;23.90;87.90
20428;DHT22;10373;49.768;18.302;2023-06-10T10:45:33;24.40;86.60
20428;DHT22;10373;49.768;18.302;2023-06-10T10:48:08;24.60;82.70
20428;DHT22;10373;49.768;18.302;2023-06-10T10:50:37;23.90;81.20
20428;DHT22;10373;49.768;18.302;2023-06-10T10:53:04;23.40;83.00
20428;DHT22;10373;49.768;18.302;2023-06-10T10:55:31;23.70;83.80
20428;DHT22;10373;49.768;18.302;2023-06-10T10:58:04;23.90;80.30
20428;DHT22;10373;49.768;18.302;2023-06-10T11:00:35;24.50;80.00
20428;DHT22;10373;49.768;18.302;2023-06-10T11:05:58;25.40;75.80
20428;DHT22;10373;49.768;18.302;2023-06-10T11:10:59;26.10;71.90
20428;DHT22;10373;49.768;18.302;2023-06-10T11:13:26;26.00;71.20
20428;DHT22;10373;49.768;18.302;2023-06-10T11:15:53;25.40;72.30
20428;DHT22;10373;49.768;18.302;2023-06-10T11:18:29;25.00;74.60
20428;DHT22;10373;49.768;18.302;2023-06-10T11:21:04;24.50;77.50
20428;DHT22;10373;49.768;18.302;2023-06-10T11:23:38;24.00;82.60
20428;DHT22;10373;49.768;18.302;2023-06-10T11:26:15;23.80;84.80
20428;DHT22;10373;49.768;18.302;2023-06-10T11:31:31;23.10;88.00
20428;DHT22;10373;49.768;18.302;2023-06-10T11:34:02;22.90;90.60
20428;DHT22;10373;49.768;18.302;2023-06-10T11:36:30;22.50;94.60
20428;DHT22;10373;49.768;18.302;2023-06-10T11:38:58;22.00;95.70
20428;DHT22;10373;49.768;18.302;2023-06-10T11:41:28;21.30;96.30
20428;DHT22;10373;49.768;18.302;2023-06-10T11:43:55;21.00;99.40
20428;DHT22;10373;49.768;18.302;2023-06-10T11:46:24;20.80;99.90
20428;DHT22;10373;49.768;18.302;2023-06-10T11:48:57;20.40;99.90
20428;DHT22;10373;49.768;18.302;2023-06-10T11:51:29;20.20;99.90
20428;DHT22;10373;49.768;18.302;2023-06-10T11:53:56;20.10;99.90
20428;DHT22;10373;49.768;18.302;2023-06-10T11:56:22;20.00;99.90
20428;DHT22;10373;49.768;18.302;2023-06-10T11:59:03;20.00;99.90
20428;DHT22;10373;49.768;18.302;2023-06-10T12:01:43;19.80;99.90
20428;DHT22;10373;49.768;18.302;2023-06-10T12:04:12;19.70;99.90
20428;DHT22;10373;49.768;18.302;2023-06-10T12:06:49;19.80;99.90
20428;DHT22;10373;49.768;18.302;2023-06-10T12:09:19;19.90;99.90
20428;DHT22;10373;49.768;18.302;2023-06-10T12:11:45;20.10;99.80
20428;DHT22;10373;49.768;18.302;2023-06-10T12:14:13;20.90;99.40
20428;DHT22;10373;49.768;18.302;2023-06-10T12:16:39;21.60;96.60
20428;DHT22;10373;49.768;18.302;2023-06-10T12:19:05;22.60;95.10
20428;DHT22;10373;49.768;18.302;2023-06-10T12:21:33;23.40;91.90
20428;DHT22;10373;49.768;18.302;2023-06-10T12:24:10;23.60;90.20
20428;DHT22;10373;49.768;18.302;2023-06-10T12:26:43;23.50;90.00
20428;DHT22;10373;49.768;18.302;2023-06-10T12:29:25;24.20;86.70
20428;DHT22;10373;49.768;18.302;2023-06-10T12:32:02;24.80;85.60
20428;DHT22;10373;49.768;18.302;2023-06-10T12:34:38;24.70;80.10
20428;DHT22;10373;49.768;18.302;2023-06-10T12:37:10;23.90;81.10
20428;DHT22;10373;49.768;18.302;2023-06-10T12:39:40;23.50;83.70
20428;DHT22;10373;49.768;18.302;2023-06-10T12:42:08;23.40;86.40
20428;DHT22;10373;49.768;18.302;2023-06-10T12:44:38;23.40;87.30
20428;DHT22;10373;49.768;18.302;2023-06-10T12:47:09;23.20;87.20
20428;DHT22;10373;49.768;18.302;2023-06-10T12:49:36;22.40;89.90
20428;DHT22;10373;49.768;18.302;2023-06-10T12:52:02;22.10;91.80
20428;DHT22;10373;49.768;18.302;2023-06-10T12:54:28;22.00;93.50
20428;DHT22;10373;49.768;18.302;2023-06-10T12:56:53;21.70;94.50
20428;DHT22;10373;49.768;18.302;2023-06-10T12:59:19;21.60;96.00
20428;DHT22;10373;49.768;18.302;2023-06-10T13:01:53;21.60;97.80
20428;DHT22;10373;49.768;18.302;2023-06-10T13:04:19;21.70;98.90
20428;DHT22;10373;49.768;18.302;2023-06-10T13:06:46;21.60;99.90
20428;DHT22;10373;49.768;18.302;2023-06-10T13:09:13;21.70;99.90
20428;DHT22;10373;49.768;18.302;2023-06-10T13:11:39;21.80;99.90
20428;DHT22;10373;49.768;18.302;2023-06-10T13:14:05;21.90;99.90
20428;DHT22;10373;49.768;18.302;2023-06-10T13:16:32;21.80;99.90
20428;DHT22;10373;49.768;18.302;2023-06-10T13:18:58;21.40;99.90
20428;DHT22;10373;49.768;18.302;2023-06-10T13:21:24;21.40;99.90
20428;DHT22;10373;49.768;18.302;2023-06-10T13:23:51;21.30;99.90
20428;DHT22;10373;49.768;18.302;2023-06-10T13:26:17;21.20;99.90
20428;DHT22;10373;49.768;18.302;2023-06-10T13:28:43;21.30;99.90
20428;DHT22;10373;49.768;18.302;2023-06-10T13:31:09;21.30;99.90
20428;DHT22;10373;49.768;18.302;2023-06-10T13:33:35;21.20;99.90
20428;DHT22;10373;49.768;18.302;2023-06-10T13:36:01;21.20;99.90
20428;DHT22;10373;49.768;18.302;2023-06-10T13:38:26;21.30;99.90
20428;DHT22;10373;49.768;18.302;2023-06-10T13:40:52;21.30;99.90
20428;DHT22;10373;49.768;18.302;2023-06-10T13:43:18;21.40;99.90
20428;DHT22;10373;49.768;18.302;2023-06-10T13:45:43;21.50;99.90
20428;DHT22;10373;49.768;18.302;2023-06-10T13:48:09;21.80;99.90
20428;DHT22;10373;49.768;18.302;2023-06-10T13:50:35;22.20;99.90
20428;DHT22;10373;49.768;18.302;2023-06-10T13:53:00;22.30;99.90
20428;DHT22;10373;49.768;18.302;2023-06-10T13:55:26;22.50;97.20
20428;DHT22;10373;49.768;18.302;2023-06-10T13:57:52;22.40;97.70
20428;DHT22;10373;49.768;18.302;2023-06-10T14:00:18;22.40;97.60
20428;DHT22;10373;49.768;18.302;2023-06-10T14:02:43;22.20;96.90
20428;DHT22;10373;49.768;18.302;2023-06-10T14:05:10;22.00;96.80
20428;DHT22;10373;49.768;18.302;2023-06-10T14:07:35;22.10;97.10
20428;DHT22;10373;49.768;18.302;2023-06-10T14:10:03;21.90;96.70
20428;DHT22;10373;49.768;18.302;2023-06-10T14:12:28;21.90;95.70
20428;DHT22;10373;49.768;18.302;2023-06-10T14:14:54;21.90;95.80
20428;DHT22;10373;49.768;18.302;2023-06-10T14:17:20;22.20;95.40
20428;DHT22;10373;49.768;18.302;2023-06-10T14:19:45;22.40;95.10
20428;DHT22;10373;49.768;18.302;2023-06-10T14:22:11;22.60;93.70
20428;DHT22;10373;49.768;18.302;2023-06-10T14:24:37;22.70;92.80
20428;DHT22;10373;49.768;18.302;2023-06-10T14:27:03;22.80;93.00
20428;DHT22;10373;49.768;18.302;2023-06-10T14:29:28;22.80;91.50
20428;DHT22;10373;49.768;18.302;2023-06-10T14:31:55;22.90;90.10
20428;DHT22;10373;49.768;18.302;2023-06-10T14:34:20;22.70;89.20
20428;DHT22;10373;49.768;18.302;2023-06-10T14:36:48;22.60;85.60
20428;DHT22;10373;49.768;18.302;2023-06-10T14:39:14;22.50;86.70
20428;DHT22;10373;49.768;18.302;2023-06-10T14:41:40;22.30;84.80
20428;DHT22;10373;49.768;18.302;2023-06-10T14:44:05;22.20;86.20
20428;DHT22;10373;49.768;18.302;2023-06-10T14:46:31;22.20;85.70
20428;DHT22;10373;49.768;18.302;2023-06-10T14:48:57;22.10;85.30
20428;DHT22;10373;49.768;18.302;2023-06-10T14:51:24;22.10;84.60
20428;DHT22;10373;49.768;18.302;2023-06-10T14:53:50;22.20;84.30
20428;DHT22;10373;49.768;18.302;2023-06-10T14:56:16;22.20;84.80
20428;DHT22;10373;49.768;18.302;2023-06-10T14:58:41;22.20;83.90
20428;DHT22;10373;49.768;18.302;2023-06-10T15:01:07;22.20;83.90
20428;DHT22;10373;49.768;18.302;2023-06-10T15:03:33;22.10;82.70
20428;DHT22;10373;49.768;18.302;2023-06-10T15:05:58;22.10;83.90
20428;DHT22;10373;49.768;18.302;2023-06-10T15:08:33;22.10;84.50
20428;DHT22;10373;49.768;18.302;2023-06-10T15:10:59;22.10;83.10
20428;DHT22;10373;49.768;18.302;2023-06-10T15:13:26;22.10;84.10
20428;DHT22;10373;49.768;18.302;2023-06-10T15:15:52;22.20;83.70
20428;DHT22;10373;49.768;18.302;2023-06-10T15:18:17;22.30;83.40
20428;DHT22;10373;49.768;18.302;2023-06-10T15:20:43;22.20;83.30
20428;DHT22;10373;49.768;18.302;2023-06-10T15:23:09;22.20;85.10
20428;DHT22;10373;49.768;18.302;2023-06-10T15:25:34;22.00;84.90
20428;DHT22;10373;49.768;18.302;2023-06-10T15:28:01;21.90;85.40